createdAt,value
2022-12-23T00:01:54.881Z,33.00
2022-12-23T00:04:22.139Z,33.70
2022-12-23T00:06:49.451Z,31.60
2022-12-23T00:09:17.012Z,31.10
2022-12-23T00:12:12.535Z,32.30
2022-12-23T00:14:57.321Z,31.90
2022-12-23T00:17:25.080Z,30.20
2022-12-23T00:19:52.001Z,31.90
2022-12-23T00:22:19.201Z,33.10
2022-12-23T00:24:46.345Z,32.50
2022-12-23T00:27:13.364Z,32.70
2022-12-23T00:29:40.454Z,33.20
2022-12-23T00:32:07.682Z,34.90
2022-12-23T00:34:34.656Z,34.90
2022-12-23T00:37:01.685Z,34.00
2022-12-23T00:39:47.289Z,34.70
2022-12-23T00:42:33.376Z,36.30
2022-12-23T00:45:15.971Z,37.90
2022-12-23T00:48:00.820Z,35.80
2022-12-23T00:50:28.274Z,42.10
2022-12-23T00:52:55.274Z,41.50
2022-12-23T00:55:22.397Z,43.10
2022-12-23T00:57:49.656Z,43.10
2022-12-23T01:00:18.182Z,43.10
2022-12-23T01:03:03.195Z,41.00
2022-12-23T01:05:39.843Z,42.50
2022-12-23T01:08:08.452Z,48.30
2022-12-23T01:10:37.625Z,41.60
2022-12-23T01:13:04.781Z,48.90
2022-12-23T01:15:32.145Z,50.90
2022-12-23T01:17:59.112Z,47.00
2022-12-23T01:20:26.318Z,51.50
2022-12-23T01:22:53.566Z,52.00
2022-12-23T01:25:20.611Z,54.20
2022-12-23T01:27:47.596Z,51.80
2022-12-23T01:30:15.304Z,48.80
2022-12-23T01:32:42.404Z,60.30
2022-12-23T01:35:10.199Z,58.70
2022-12-23T01:37:37.388Z,48.00
2022-12-23T01:40:05.289Z,60.60
2022-12-23T01:42:47.863Z,54.10
2022-12-23T01:45:20.585Z,58.40
2022-12-23T01:47:53.359Z,69.60
2022-12-23T01:50:25.194Z,63.50
2022-12-23T01:53:00.495Z,50.60
2022-12-23T01:55:36.076Z,74.70
2022-12-23T01:58:09.989Z,62.40
2022-12-23T02:00:56.103Z,55.10
2022-12-23T02:03:40.787Z,53.70
2022-12-23T02:06:27.658Z,70.60
2022-12-23T02:09:12.315Z,73.40
2022-12-23T02:11:56.037Z,63.50
2022-12-23T02:14:56.721Z,61.50
2022-12-23T02:17:32.462Z,59.60
2022-12-23T02:20:26.910Z,66.70
2022-12-23T02:23:20.218Z,48.10
2022-12-23T02:26:03.552Z,48.60
2022-12-23T02:28:54.017Z,56.70
2022-12-23T02:31:29.290Z,53.40
2022-12-23T02:34:02.461Z,66.80
2022-12-23T02:36:40.362Z,49.40
2022-12-23T02:39:12.008Z,51.50
2022-12-23T02:41:49.970Z,49.70
2022-12-23T02:44:35.291Z,45.70
2022-12-23T02:47:05.843Z,50.00
2022-12-23T02:49:38.019Z,50.50
2022-12-23T02:52:11.511Z,56.90
2022-12-23T02:54:45.253Z,49.00
2022-12-23T02:57:15.965Z,54.60
2022-12-23T02:59:48.093Z,46.50
2022-12-23T03:02:15.356Z,50.50
2022-12-23T03:04:43.221Z,50.00
2022-12-23T03:07:18.658Z,49.40
2022-12-23T03:09:59.521Z,51.50
2022-12-23T03:12:34.769Z,46.60
2022-12-23T03:15:14.019Z,49.90
2022-12-23T03:17:58.692Z,45.20
2022-12-23T03:20:29.742Z,43.00
2022-12-23T03:23:04.974Z,43.40
2022-12-23T03:25:37.114Z,42.90
2022-12-23T03:28:12.055Z,39.70
2022-12-23T03:30:43.204Z,42.70
2022-12-23T03:33:16.611Z,41.60
2022-12-23T03:35:49.725Z,40.50
2022-12-23T03:38:20.341Z,40.40
2022-12-23T03:40:51.081Z,41.20
2022-12-23T03:43:24.549Z,38.10
2022-12-23T03:45:55.376Z,38.90
2022-12-23T03:48:28.261Z,39.80
2022-12-23T03:51:01.968Z,36.20
2022-12-23T03:53:33.964Z,37.00
2022-12-23T03:56:05.583Z,42.50
2022-12-23T03:58:39.606Z,37.30
2022-12-23T04:01:19.193Z,39.90
2022-12-23T04:03:56.321Z,39.50
2022-12-23T04:06:25.761Z,38.70
2022-12-23T04:08:53.800Z,37.20
2022-12-23T04:11:21.267Z,38.30
2022-12-23T04:13:49.840Z,39.50
2022-12-23T04:16:17.388Z,38.70
2022-12-23T04:18:44.572Z,37.90
2022-12-23T04:21:11.751Z,44.30
2022-12-23T04:23:40.506Z,35.60
2022-12-23T04:26:07.704Z,36.70
2022-12-23T04:28:34.849Z,38.50
2022-12-23T04:31:01.886Z,37.70
2022-12-23T04:33:28.878Z,37.40
2022-12-23T04:35:56.154Z,37.00
2022-12-23T04:38:23.186Z,36.30
2022-12-23T04:40:50.145Z,38.00
2022-12-23T04:43:17.384Z,36.00
2022-12-23T04:45:44.433Z,34.90
2022-12-23T04:48:11.512Z,36.90
2022-12-23T04:50:38.741Z,39.80
2022-12-23T04:53:05.778Z,35.90
2022-12-23T04:55:32.727Z,35.80
2022-12-23T04:57:59.978Z,34.80
2022-12-23T05:00:27.244Z,37.60
2022-12-23T05:02:54.364Z,33.10
2022-12-23T05:05:22.586Z,39.50
2022-12-23T05:07:51.697Z,34.80
2022-12-23T05:10:19.049Z,34.20
2022-12-23T05:12:46.158Z,31.60
2022-12-23T05:15:14.186Z,34.80
2022-12-23T05:17:41.275Z,31.50
2022-12-23T05:20:11.438Z,32.90
2022-12-23T05:22:38.454Z,33.40
2022-12-23T05:25:06.136Z,33.10
2022-12-23T05:27:33.474Z,34.90
2022-12-23T05:30:00.546Z,32.80
2022-12-23T05:32:27.722Z,33.50
2022-12-23T05:34:55.142Z,35.80
2022-12-23T05:37:22.884Z,34.90
2022-12-23T05:39:49.930Z,34.30
2022-12-23T05:42:19.512Z,32.40
2022-12-23T05:44:46.544Z,32.70
2022-12-23T05:47:14.039Z,34.00
2022-12-23T05:49:41.105Z,33.90
2022-12-23T05:52:08.550Z,34.60
2022-12-23T05:54:35.680Z,34.60
2022-12-23T05:57:02.869Z,33.40
2022-12-23T05:59:31.543Z,33.10
2022-12-23T06:01:59.114Z,34.80
2022-12-23T06:04:26.697Z,34.00
2022-12-23T06:06:53.926Z,34.00
2022-12-23T06:09:21.061Z,33.80
2022-12-23T06:11:48.247Z,33.80
2022-12-23T06:14:15.655Z,34.20
2022-12-23T06:16:42.784Z,33.30
2022-12-23T06:19:09.887Z,33.30
2022-12-23T06:21:36.913Z,35.60
2022-12-23T06:24:03.999Z,39.20
2022-12-23T06:26:31.309Z,38.10
2022-12-23T06:28:58.279Z,37.00
2022-12-23T06:31:25.354Z,38.20
2022-12-23T06:33:52.759Z,36.50
2022-12-23T06:36:20.071Z,34.20
2022-12-23T06:38:47.163Z,35.00
2022-12-23T06:41:14.625Z,33.30
2022-12-23T06:43:42.097Z,34.80
2022-12-23T06:46:09.311Z,35.40
2022-12-23T06:48:36.889Z,36.90
2022-12-23T06:51:04.040Z,37.60
2022-12-23T06:53:31.203Z,36.90
2022-12-23T06:56:04.292Z,35.40
2022-12-23T06:58:32.050Z,35.60
2022-12-23T07:00:59.429Z,36.60
2022-12-23T07:03:26.711Z,36.30
2022-12-23T07:05:54.438Z,35.90
2022-12-23T07:08:22.199Z,37.70
2022-12-23T07:10:50.153Z,36.40
2022-12-23T07:13:17.990Z,37.30
2022-12-23T07:15:45.303Z,32.80
2022-12-23T07:18:12.284Z,35.20
2022-12-23T07:20:39.263Z,34.30
2022-12-23T07:23:06.418Z,35.90
2022-12-23T07:25:33.385Z,33.90
2022-12-23T07:28:00.631Z,34.60
2022-12-23T07:30:28.802Z,32.30
2022-12-23T07:32:56.151Z,34.90
2022-12-23T07:35:23.088Z,29.10
2022-12-23T07:37:55.544Z,32.60
2022-12-23T07:40:23.135Z,31.30
2022-12-23T07:42:55.299Z,32.10
2022-12-23T07:45:22.852Z,30.30
2022-12-23T07:47:53.332Z,29.20
2022-12-23T07:50:20.716Z,33.20
2022-12-23T07:52:47.990Z,30.30
2022-12-23T07:55:15.158Z,31.20
2022-12-23T07:57:42.402Z,30.00
2022-12-23T08:00:14.251Z,27.60
2022-12-23T08:02:42.232Z,28.00
2022-12-23T08:05:11.010Z,31.90
2022-12-23T08:07:38.385Z,30.00
2022-12-23T08:10:05.836Z,30.70
2022-12-23T08:12:33.264Z,30.10
2022-12-23T08:15:00.231Z,31.20
2022-12-23T08:17:31.870Z,34.80
2022-12-23T08:19:59.044Z,30.00
2022-12-23T08:22:26.065Z,26.70
2022-12-23T08:24:53.662Z,28.20
2022-12-23T08:27:22.536Z,34.40
2022-12-23T08:29:49.683Z,32.20
2022-12-23T08:32:16.741Z,30.70
2022-12-23T08:34:44.357Z,31.60
2022-12-23T08:37:11.480Z,29.10
2022-12-23T08:39:38.566Z,30.30
2022-12-23T08:42:05.822Z,27.10
2022-12-23T08:44:33.088Z,28.20
2022-12-23T08:47:00.149Z,26.00
2022-12-23T08:49:27.286Z,25.10
2022-12-23T08:51:54.349Z,26.70
2022-12-23T08:54:22.413Z,29.30
2022-12-23T08:56:49.662Z,27.00
2022-12-23T08:59:19.908Z,24.80
2022-12-23T09:01:47.689Z,27.20
2022-12-23T09:04:14.929Z,24.30
2022-12-23T09:06:43.490Z,25.80
2022-12-23T09:09:12.112Z,29.40
2022-12-23T09:11:39.847Z,27.60
2022-12-23T09:14:08.871Z,28.60
2022-12-23T09:16:36.089Z,31.30
2022-12-23T09:19:03.844Z,30.40
2022-12-23T09:21:31.196Z,27.50
2022-12-23T09:23:58.388Z,24.40
2022-12-23T09:26:27.684Z,27.30
2022-12-23T09:28:56.816Z,28.40
2022-12-23T09:31:32.586Z,27.40
2022-12-23T09:34:03.158Z,28.50
2022-12-23T09:36:30.477Z,34.00
2022-12-23T09:38:59.562Z,29.00
2022-12-23T09:41:42.916Z,26.90
2022-12-23T09:44:34.851Z,31.30
2022-12-23T09:47:06.295Z,29.20
2022-12-23T09:49:33.834Z,28.70
2022-12-23T09:52:05.535Z,30.50
2022-12-23T09:54:42.516Z,27.90
2022-12-23T09:57:19.822Z,28.90
2022-12-23T10:00:02.765Z,29.90
2022-12-23T10:02:44.105Z,28.30
2022-12-23T10:05:23.770Z,28.20
2022-12-23T10:07:54.459Z,30.10
2022-12-23T10:10:30.534Z,31.00
2022-12-23T10:12:59.830Z,30.40
2022-12-23T10:15:31.167Z,34.80
2022-12-23T10:18:03.721Z,31.10
2022-12-23T10:20:40.472Z,31.10
2022-12-23T10:23:12.201Z,34.50
2022-12-23T10:25:47.723Z,33.00
2022-12-23T10:28:16.342Z,30.20
2022-12-23T10:31:17.321Z,32.70
2022-12-23T10:33:43.409Z,30.20
2022-12-23T10:36:21.107Z,31.20
2022-12-23T10:39:00.836Z,32.10
2022-12-23T10:41:39.241Z,32.40
2022-12-23T10:44:25.876Z,35.80
2022-12-23T10:47:03.059Z,33.10
2022-12-23T10:49:43.493Z,34.30
2022-12-23T10:52:16.699Z,32.30
2022-12-23T10:54:46.488Z,33.90
2022-12-23T10:57:16.037Z,33.40
2022-12-23T10:59:43.155Z,30.70
2022-12-23T11:02:29.521Z,33.00
2022-12-23T11:04:56.788Z,32.20
2022-12-23T11:07:43.879Z,32.40
2022-12-23T11:10:19.485Z,32.80
2022-12-23T11:12:49.291Z,36.60
2022-12-23T11:15:31.183Z,35.70
2022-12-23T11:18:17.674Z,37.40
2022-12-23T11:20:47.021Z,42.50
2022-12-23T11:23:27.070Z,40.30
2022-12-23T11:26:03.797Z,35.40
2022-12-23T11:28:31.708Z,36.80
2022-12-23T11:31:05.678Z,36.70
2022-12-23T11:33:35.785Z,36.20
2022-12-23T11:36:15.993Z,37.60
2022-12-23T11:38:52.282Z,33.90
2022-12-23T11:41:24.854Z,36.50
2022-12-23T11:43:58.916Z,34.00
2022-12-23T11:46:30.610Z,38.20
2022-12-23T11:49:18.660Z,34.80
2022-12-23T11:51:46.586Z,37.10
2022-12-23T11:54:19.368Z,39.40
2022-12-23T11:56:49.879Z,35.00
2022-12-23T11:59:32.458Z,39.40
2022-12-23T12:02:03.206Z,36.70
2022-12-23T12:04:35.374Z,37.60
2022-12-23T12:07:04.921Z,38.90
2022-12-23T12:09:33.995Z,36.50
2022-12-23T12:12:07.014Z,39.50
2022-12-23T12:14:42.873Z,38.80
2022-12-23T12:17:17.642Z,40.00
2022-12-23T12:19:58.169Z,40.50
2022-12-23T12:22:33.909Z,42.00
2022-12-23T12:25:06.408Z,40.20
2022-12-23T12:27:40.683Z,36.90
2022-12-23T12:30:13.711Z,41.90
2022-12-23T12:32:48.142Z,39.50
2022-12-23T12:35:20.092Z,39.30
2022-12-23T12:37:53.157Z,39.40
2022-12-23T12:40:29.318Z,39.30
2022-12-23T12:43:01.025Z,40.40
2022-12-23T12:45:34.928Z,44.40
2022-12-23T12:48:18.755Z,41.90
2022-12-23T12:50:55.722Z,42.40
2022-12-23T12:53:23.942Z,39.40
2022-12-23T12:55:57.254Z,41.50
2022-12-23T12:58:25.784Z,37.40
2022-12-23T13:01:04.787Z,42.10
2022-12-23T13:03:51.487Z,39.20
2022-12-23T13:06:28.166Z,40.10
2022-12-23T13:09:06.079Z,40.10
2022-12-23T13:11:45.544Z,39.20
2022-12-23T13:14:24.354Z,41.40
2022-12-23T13:17:01.557Z,36.90
2022-12-23T13:19:35.781Z,39.60
2022-12-23T13:22:10.193Z,40.50
2022-12-23T13:24:47.518Z,37.70
2022-12-23T13:27:20.630Z,38.40
2022-12-23T13:30:06.504Z,40.60
2022-12-23T13:33:05.403Z,40.30
2022-12-23T13:35:44.805Z,40.10
2022-12-23T13:38:24.698Z,37.00
2022-12-23T13:41:00.544Z,37.80
2022-12-23T13:43:37.172Z,40.90
2022-12-23T13:46:10.626Z,37.70
2022-12-23T13:48:42.130Z,39.70
2022-12-23T13:51:18.945Z,39.20
2022-12-23T13:54:03.871Z,34.80
2022-12-23T13:56:41.172Z,37.50
2022-12-23T13:59:13.719Z,34.80
2022-12-23T14:01:47.933Z,33.60
2022-12-23T14:04:34.607Z,35.90
2022-12-23T14:07:04.183Z,31.30
2022-12-23T14:09:37.160Z,31.50
2022-12-23T14:12:24.259Z,34.50
2022-12-23T14:15:05.875Z,33.30
2022-12-23T14:17:43.143Z,35.00
2022-12-23T14:20:29.830Z,36.40
2022-12-23T14:23:07.605Z,36.60
2022-12-23T14:25:53.128Z,35.90
2022-12-23T14:28:43.795Z,35.20
2022-12-23T14:31:32.149Z,35.60
2022-12-23T14:34:06.087Z,38.40
2022-12-23T14:36:33.523Z,37.30
2022-12-23T14:39:32.739Z,33.60
2022-12-23T14:42:06.506Z,35.20
2022-12-23T14:44:51.811Z,32.70
2022-12-23T14:47:40.442Z,34.60
2022-12-23T14:50:42.576Z,33.00
2022-12-23T14:53:24.776Z,32.40
2022-12-23T14:56:10.757Z,37.00
2022-12-23T14:59:03.675Z,35.20
2022-12-23T15:01:39.005Z,32.20
2022-12-23T15:04:17.145Z,35.20
2022-12-23T15:06:46.600Z,32.10
2022-12-23T15:09:24.230Z,32.00
2022-12-23T15:11:51.817Z,33.20
2022-12-23T15:14:29.834Z,30.20
2022-12-23T15:16:56.970Z,30.10
2022-12-23T15:19:26.442Z,32.10
2022-12-23T15:22:17.880Z,28.80
2022-12-23T15:24:48.580Z,28.10
2022-12-23T15:27:30.220Z,30.10
2022-12-23T15:29:58.322Z,29.20
2022-12-23T15:32:26.772Z,29.30
2022-12-23T15:34:58.320Z,27.70
2022-12-23T15:37:30.177Z,27.20
2022-12-23T15:40:04.851Z,25.20
2022-12-23T15:42:38.539Z,26.90
2022-12-23T15:45:28.085Z,28.20
2022-12-23T15:47:55.201Z,25.00
2022-12-23T15:50:22.693Z,26.70
2022-12-23T15:52:51.800Z,26.70
2022-12-23T15:55:24.859Z,31.00
2022-12-23T15:57:53.433Z,27.70
2022-12-23T16:00:25.316Z,26.60
2022-12-23T16:03:04.760Z,26.30
2022-12-23T16:05:37.598Z,28.90
2022-12-23T16:08:29.782Z,23.60
2022-12-23T16:11:08.037Z,21.80
2022-12-23T16:13:36.230Z,26.00
2022-12-23T16:16:31.436Z,23.70
2022-12-23T16:18:58.672Z,25.80
2022-12-23T16:21:29.331Z,23.80
2022-12-23T16:23:57.120Z,24.60
2022-12-23T16:26:25.620Z,23.30
2022-12-23T16:28:56.320Z,26.60
2022-12-23T16:31:25.189Z,25.80
2022-12-23T16:33:55.592Z,24.50
2022-12-23T16:36:34.034Z,22.90
2022-12-23T16:39:13.094Z,24.70
2022-12-23T16:41:40.659Z,27.60
2022-12-23T16:44:07.996Z,26.70
2022-12-23T16:46:38.776Z,28.80
2022-12-23T16:49:11.029Z,29.60
2022-12-23T16:51:40.439Z,32.40
2022-12-23T16:54:07.977Z,28.00
2022-12-23T16:56:37.920Z,28.30
2022-12-23T16:59:05.432Z,28.70
2022-12-23T17:01:34.699Z,28.90
2022-12-23T17:04:02.927Z,30.10
2022-12-23T17:06:30.283Z,30.50
2022-12-23T17:08:57.921Z,32.40
2022-12-23T17:11:32.489Z,32.50
2022-12-23T17:14:04.630Z,31.70
2022-12-23T17:16:32.947Z,31.20
2022-12-23T17:19:00.249Z,33.80
2022-12-23T17:21:34.114Z,31.00
2022-12-23T17:24:07.698Z,32.10
2022-12-23T17:26:34.805Z,32.10
2022-12-23T17:29:04.661Z,31.90
2022-12-23T17:31:32.870Z,29.80
2022-12-23T17:34:00.041Z,28.60
2022-12-23T17:36:27.341Z,27.60
2022-12-23T17:38:54.575Z,27.30
2022-12-23T17:41:27.936Z,26.90
2022-12-23T17:43:55.092Z,28.50
2022-12-23T17:46:23.096Z,25.30
2022-12-23T17:48:50.364Z,30.70
2022-12-23T17:51:19.393Z,26.30
2022-12-23T17:53:47.495Z,27.50
2022-12-23T17:56:19.266Z,26.00
2022-12-23T17:58:48.183Z,25.70
2022-12-23T18:01:22.475Z,26.40
